Time;durP1;ratioP1;P1;durP2;ratioP2;P2;SDS_P1;SDS_P2;PMS_P1;PMS_P2;Temp;Humidity;BMP_temperature;BMP_pressure;BME280_temperature;BME280_humidity;BME280_pressure;Samples;Min_cycle;Max_cycle;Signal;HPM_P1;HPM_P2
2022/07/01 00:00:32;;;;;;;3.30;1.60;;;18.20;99.90;;;;;;5024382;28;20241;-70
2022/07/01 00:02:57;;;;;;;1.30;1.00;;;18.20;99.90;;;;;;5023966;28;20888;-71
2022/07/01 00:05:23;;;;;;;2.90;1.80;;;18.20;99.90;;;;;;5024003;28;20455;-70
2022/07/01 00:07:49;;;;;;;3.73;1.47;;;18.40;99.90;;;;;;5024122;28;20183;-70
2022/07/01 00:10:15;;;;;;;1.80;1.30;;;18.40;99.90;;;;;;5024155;28;20425;-71
2022/07/01 00:12:41;;;;;;;1.83;1.63;;;18.50;99.90;;;;;;5023921;28;20199;-69
2022/07/01 00:15:07;;;;;;;1.50;1.00;;;18.40;99.90;;;;;;5023947;28;20838;-68
2022/07/01 00:17:33;;;;;;;1.67;1.10;;;18.30;99.90;;;;;;5023758;28;20660;-69
2022/07/01 00:19:59;;;;;;;1.70;1.00;;;18.20;99.90;;;;;;5023177;28;20922;-68
2022/07/01 00:22:27;;;;;;;2.23;0.90;;;18.10;99.90;;;;;;5023702;28;20631;-70
2022/07/01 00:24:53;;;;;;;0.90;0.77;;;18.30;99.90;;;;;;5009599;28;20250;-69
2022/07/01 00:27:19;;;;;;;1.63;0.97;;;18.20;99.90;;;;;;5027485;28;20414;-67
2022/07/01 00:29:44;;;;;;;1.43;0.70;;;18.20;99.90;;;;;;5027648;28;20193;-69
2022/07/01 00:32:10;;;;;;;3.40;0.93;;;17.80;99.90;;;;;;5026326;28;20230;-69
2022/07/01 00:34:36;;;;;;;1.13;0.70;;;17.80;99.90;;;;;;5027349;28;20655;-70
2022/07/01 00:37:01;;;;;;;0.97;0.70;;;17.80;99.90;;;;;;5026772;28;20187;-70
2022/07/01 00:39:30;;;;;;;1.00;0.90;;;17.70;99.90;;;;;;5027523;28;20205;-70
2022/07/01 00:42:00;;;;;;;1.10;0.90;;;17.90;99.90;;;;;;5027673;28;20647;-70
2022/07/01 00:44:25;;;;;;;1.67;0.90;;;18.00;99.90;;;;;;5027418;28;20486;-70
2022/07/01 00:46:51;;;;;;;1.63;0.77;;;18.00;99.90;;;;;;5027120;28;20418;-70
2022/07/01 00:49:18;;;;;;;1.27;0.67;;;18.00;99.90;;;;;;5027308;28;20292;-70
2022/07/01 00:51:44;;;;;;;1.20;0.60;;;18.00;99.90;;;;;;5026938;28;20476;-70
2022/07/01 00:54:10;;;;;;;1.40;1.00;;;18.10;99.90;;;;;;5027091;28;20807;-72
2022/07/01 00:56:36;;;;;;;2.10;0.80;;;18.10;99.90;;;;;;5027066;28;20914;-69
2022/07/01 00:59:01;;;;;;;1.37;0.77;;;18.10;99.90;;;;;;5027009;28;20412;-73
2022/07/01 01:01:27;;;;;;;0.90;0.77;;;18.10;99.90;;;;;;5027104;28;20575;-69
2022/07/01 01:03:53;;;;;;;2.83;1.07;;;18.10;99.90;;;;;;5026776;28;20626;-68
2022/07/01 01:06:19;;;;;;;3.60;1.10;;;18.10;99.90;;;;;;5026869;28;20182;-69
2022/07/01 01:08:45;;;;;;;0.97;0.70;;;18.20;99.90;;;;;;5026711;28;20421;-71
2022/07/01 01:11:12;;;;;;;1.07;0.70;;;18.20;99.90;;;;;;5026692;28;20207;-70
2022/07/01 01:13:38;;;;;;;0.90;0.80;;;18.30;99.90;;;;;;5027210;28;20514;-69
2022/07/01 01:16:04;;;;;;;1.27;0.70;;;18.10;99.90;;;;;;5026551;28;21040;-70
2022/07/01 01:18:29;;;;;;;1.10;0.70;;;18.10;99.90;;;;;;5026855;28;20191;-69
2022/07/01 01:20:55;;;;;;;2.07;0.93;;;17.90;99.90;;;;;;5026586;28;20422;-69
2022/07/01 01:23:21;;;;;;;1.63;0.83;;;17.90;99.90;;;;;;5026601;28;20334;-69
2022/07/01 01:25:47;;;;;;;3.03;1.00;;;17.90;99.90;;;;;;5026255;28;20180;-69
2022/07/01 01:28:13;;;;;;;1.20;1.00;;;17.50;99.90;;;;;;5026839;28;20420;-70
2022/07/01 01:30:39;;;;;;;1.50;0.93;;;17.50;99.90;;;;;;5026531;28;20938;-69
2022/07/01 01:33:07;;;;;;;1.50;0.90;;;17.50;99.90;;;;;;5026422;28;20207;-69
2022/07/01 01:35:33;;;;;;;5.03;0.83;;;17.60;99.90;;;;;;5025046;28;20180;-70
2022/07/01 01:37:59;;;;;;;1.20;0.57;;;17.50;99.90;;;;;;5026315;28;20428;-70
2022/07/01 01:40:25;;;;;;;0.80;0.77;;;17.40;99.90;;;;;;5026229;28;20240;-71
2022/07/01 01:42:50;;;;;;;2.40;1.00;;;17.10;99.90;;;;;;5026152;28;20300;-69
2022/07/01 01:45:16;;;;;;;3.43;0.80;;;17.00;99.90;;;;;;5026451;28;21133;-69
2022/07/01 01:47:42;;;;;;;1.00;0.70;;;17.00;99.90;;;;;;5025856;28;20200;-69
2022/07/01 01:50:10;;;;;;;1.10;0.93;;;16.80;99.90;;;;;;5025994;28;20187;-69
2022/07/01 01:52:38;;;;;;;0.93;0.70;;;16.90;99.90;;;;;;5025943;28;20713;-69
2022/07/01 01:55:04;;;;;;;1.03;0.90;;;16.90;99.90;;;;;;5025849;28;20425;-70
2022/07/01 01:57:30;;;;;;;2.00;1.00;;;16.90;99.90;;;;;;5025904;28;21079;-69
2022/07/01 01:59:56;;;;;;;2.37;1.10;;;16.90;99.90;;;;;;5026206;28;20419;-70
2022/07/01 02:02:22;;;;;;;1.83;0.93;;;16.70;99.90;;;;;;5026248;28;20203;-70
2022/07/01 02:04:48;;;;;;;2.23;1.00;;;16.80;99.90;;;;;;5025674;28;20709;-71
2022/07/01 02:07:14;;;;;;;1.17;0.70;;;16.70;99.90;;;;;;5026161;28;20175;-69
2022/07/01 02:09:39;;;;;;;1.00;0.90;;;16.60;99.90;;;;;;5026110;28;20433;-68
2022/07/01 02:12:05;;;;;;;3.00;1.20;;;16.80;99.90;;;;;;5025730;28;20198;-69
2022/07/01 02:14:31;;;;;;;2.03;1.20;;;16.80;99.90;;;;;;5025935;28;20320;-69
2022/07/01 02:16:56;;;;;;;1.83;1.10;;;16.90;99.90;;;;;;5025814;28;20707;-69
2022/07/01 02:19:22;;;;;;;2.93;1.40;;;16.70;99.90;;;;;;5025570;28;20581;-69
2022/07/01 02:21:47;;;;;;;2.03;1.10;;;16.70;99.90;;;;;;5025447;28;20281;-70
2022/07/01 02:24:13;;;;;;;1.10;0.80;;;16.90;99.90;;;;;;5025670;28;20217;-70
2022/07/01 02:26:38;;;;;;;4.93;2.60;;;17.00;99.90;;;;;;5024385;28;20189;-71
2022/07/01 02:29:04;;;;;;;1.20;0.90;;;17.10;99.90;;;;;;5025584;28;20291;-70
2022/07/01 02:31:30;;;;;;;1.37;1.10;;;16.90;99.90;;;;;;5025559;28;20309;-70
2022/07/01 02:33:55;;;;;;;2.93;1.07;;;16.90;99.90;;;;;;5025683;28;20238;-70
2022/07/01 02:36:21;;;;;;;1.60;1.10;;;16.90;99.90;;;;;;5025538;28;20183;-72
2022/07/01 02:38:47;;;;;;;2.63;1.10;;;16.70;99.90;;;;;;5022822;28;20670;-69
2022/07/01 02:41:12;;;;;;;1.03;0.90;;;16.60;99.90;;;;;;5024636;28;20568;-70
2022/07/01 02:43:38;;;;;;;0.90;0.80;;;16.40;99.90;;;;;;5025138;28;20196;-69
2022/07/01 02:46:04;;;;;;;4.50;1.37;;;16.30;99.90;;;;;;5024913;28;20313;-71
2022/07/01 02:48:29;;;;;;;1.63;1.20;;;16.50;99.90;;;;;;5025172;28;20190;-69
2022/07/01 02:50:55;;;;;;;1.80;0.90;;;16.60;99.90;;;;;;5024652;28;20171;-69
2022/07/01 02:53:21;;;;;;;1.10;0.97;;;16.60;99.90;;;;;;5024865;28;20219;-68
2022/07/01 02:55:46;;;;;;;1.20;0.87;;;16.70;99.90;;;;;;5024426;28;20180;-68
2022/07/01 02:58:12;;;;;;;1.30;1.10;;;16.50;99.90;;;;;;5024966;28;20520;-69
2022/07/01 03:00:38;;;;;;;2.07;1.30;;;16.70;99.90;;;;;;5024719;28;20228;-70
2022/07/01 03:03:03;;;;;;;2.10;1.67;;;16.60;99.90;;;;;;5024712;28;20268;-69
2022/07/01 03:05:29;;;;;;;1.60;1.27;;;16.60;99.90;;;;;;5024813;28;20193;-69
2022/07/01 03:07:54;;;;;;;1.80;1.70;;;16.70;99.90;;;;;;5024809;28;20732;-69
2022/07/01 03:10:20;;;;;;;2.20;1.57;;;16.70;99.90;;;;;;5024605;28;20524;-69
2022/07/01 03:12:46;;;;;;;1.70;1.60;;;16.80;99.90;;;;;;5024176;28;20674;-71
2022/07/01 03:15:14;;;;;;;1.87;1.47;;;16.70;99.90;;;;;;5024665;28;20189;-69
2022/07/01 03:17:44;;;;;;;2.73;1.37;;;16.50;99.90;;;;;;5024323;28;20193;-68
2022/07/01 03:20:13;;;;;;;1.30;1.10;;;16.40;99.90;;;;;;5024298;28;20414;-69
2022/07/01 03:22:40;;;;;;;1.43;1.33;;;16.30;99.90;;;;;;5023311;28;20437;-69
2022/07/01 03:25:06;;;;;;;1.77;1.30;;;16.50;99.90;;;;;;5024354;28;20538;-69
2022/07/01 03:27:33;;;;;;;1.50;1.30;;;16.60;99.90;;;;;;5024641;28;20778;-68
2022/07/01 03:29:59;;;;;;;1.50;1.40;;;16.40;99.90;;;;;;5024353;28;20555;-69
2022/07/01 03:32:26;;;;;;;2.00;1.43;;;16.30;99.90;;;;;;5024377;28;20435;-69
2022/07/01 03:34:52;;;;;;;1.37;1.17;;;16.30;99.90;;;;;;5024154;28;20492;-69
2022/07/01 03:37:19;;;;;;;1.27;1.00;;;16.30;99.90;;;;;;5024297;28;21117;-70
2022/07/01 03:39:45;;;;;;;1.77;1.00;;;16.70;99.90;;;;;;5024151;28;20412;-68
2022/07/01 03:42:11;;;;;;;1.80;1.27;;;16.50;99.90;;;;;;5024334;28;20444;-68
2022/07/01 03:44:37;;;;;;;1.40;1.20;;;16.60;99.90;;;;;;5024163;28;20933;-70
2022/07/01 03:47:05;;;;;;;1.80;1.17;;;16.80;99.90;;;;;;5023852;28;20182;-69
2022/07/01 03:49:31;;;;;;;1.87;1.17;;;16.70;99.90;;;;;;5024078;28;20543;-69
2022/07/01 03:51:57;;;;;;;1.20;1.10;;;16.50;99.90;;;;;;5022995;28;20486;-70
2022/07/01 03:54:38;;;;;;;1.20;1.10;;;16.70;99.90;;;;;;5023369;28;20818;-69
2022/07/01 03:57:09;;;;;;;1.00;0.90;;;16.60;99.90;;;;;;5024318;28;20181;-69
2022/07/01 03:59:39;;;;;;;1.17;0.97;;;16.50;99.90;;;;;;5023963;28;20424;-69
2022/07/01 04:02:07;;;;;;;1.37;1.13;;;16.60;99.90;;;;;;5023992;28;20957;-69
2022/07/01 04:04:34;;;;;;;2.53;1.40;;;16.70;99.90;;;;;;5023898;28;20418;-69
2022/07/01 04:07:04;;;;;;;1.20;0.97;;;16.80;99.90;;;;;;5044285;22;20577;-72
2022/07/01 04:09:31;;;;;;;1.20;1.10;;;16.50;99.90;;;;;;5027977;28;20464;-70
2022/07/01 04:11:57;;;;;;;3.23;1.47;;;16.50;99.90;;;;;;5028061;28;20450;-69
2022/07/01 04:14:24;;;;;;;2.00;1.60;;;16.60;99.90;;;;;;5025120;28;20451;-69
2022/07/01 04:16:49;;;;;;;1.60;1.50;;;16.60;99.90;;;;;;5040450;28;20439;-70
2022/07/01 04:19:16;;;;;;;1.47;1.13;;;16.60;99.90;;;;;;5027702;28;20409;-70
2022/07/01 04:24:27;;;;;;;1.10;1.00;;;16.60;99.90;;;;;;5039580;28;20403;-70
2022/07/01 04:26:53;;;;;;;2.30;1.27;;;16.60;99.90;;;;;;5035427;28;20443;-69
2022/07/01 04:29:19;;;;;;;1.20;0.90;;;16.50;99.90;;;;;;5036498;28;20419;-69
2022/07/01 04:31:45;;;;;;;1.10;1.00;;;16.50;99.90;;;;;;5043861;28;20213;-69
2022/07/01 04:34:11;;;;;;;1.73;1.13;;;16.60;99.90;;;;;;5036574;28;20547;-69
2022/07/01 04:36:36;;;;;;;1.70;1.00;;;16.50;99.90;;;;;;5021528;28;21271;-69
2022/07/01 04:39:04;;;;;;;1.57;1.00;;;16.40;99.90;;;;;;5026676;28;20182;-70
2022/07/01 04:44:14;;;;;;;1.93;1.40;;;16.40;99.90;;;;;;5043374;28;20560;-69
2022/07/01 04:46:40;;;;;;;1.30;0.70;;;16.20;99.90;;;;;;5021327;28;20455;-70
2022/07/01 04:49:06;;;;;;;5.63;1.30;;;16.30;99.90;;;;;;5039076;28;20419;-69
2022/07/01 04:51:34;;;;;;;2.00;1.20;;;16.40;99.90;;;;;;5042584;28;20332;-69
2022/07/01 04:54:00;;;;;;;1.23;1.07;;;16.40;99.90;;;;;;5025062;28;20547;-69
2022/07/01 04:56:28;;;;;;;1.10;1.00;;;16.40;99.90;;;;;;5042513;28;20425;-69
2022/07/01 04:58:54;;;;;;;1.53;1.07;;;16.40;99.90;;;;;;5042899;28;20427;-70
2022/07/01 05:01:20;;;;;;;0.90;0.80;;;16.40;99.90;;;;;;5033631;28;20426;-70
2022/07/01 05:03:45;;;;;;;1.53;1.00;;;16.50;99.90;;;;;;5043342;28;20914;-71
2022/07/01 05:06:11;;;;;;;2.67;1.27;;;16.20;99.90;;;;;;5023767;28;20207;-71
2022/07/01 05:08:36;;;;;;;1.20;1.00;;;16.40;99.90;;;;;;5032755;28;20224;-70
2022/07/01 05:11:02;;;;;;;0.87;0.70;;;16.30;99.90;;;;;;5029265;28;21120;-69
2022/07/01 05:13:27;;;;;;;1.30;1.00;;;16.40;99.90;;;;;;5038035;28;20569;-70
2022/07/01 05:15:53;;;;;;;1.40;1.13;;;16.20;99.90;;;;;;5041614;28;20244;-69
2022/07/01 05:23:47;;;;;;;2.67;1.47;;;16.40;99.90;;;;;;5048475;28;20403;-69
2022/07/01 05:26:21;;;;;;;3.27;1.37;;;16.30;99.90;;;;;;5047225;28;20423;-70
2022/07/01 05:28:47;;;;;;;1.60;1.10;;;16.20;99.90;;;;;;5055022;28;20178;-70
2022/07/01 05:31:13;;;;;;;1.50;1.37;;;16.40;99.90;;;;;;5048661;28;20430;-71
2022/07/01 05:33:39;;;;;;;1.87;1.70;;;16.50;99.90;;;;;;5050574;28;20484;-71
2022/07/01 05:36:05;;;;;;;2.13;1.30;;;16.50;99.90;;;;;;5051261;28;20456;-70
2022/07/01 05:38:30;;;;;;;1.80;1.47;;;16.50;99.90;;;;;;5051697;28;20206;-70
2022/07/01 05:40:56;;;;;;;1.47;1.37;;;16.50;99.90;;;;;;5042702;28;20794;-69
2022/07/01 05:43:22;;;;;;;3.40;1.73;;;16.40;99.90;;;;;;5041230;28;20186;-68
2022/07/01 05:45:48;;;;;;;3.30;1.87;;;16.50;99.90;;;;;;5042226;28;20676;-68
2022/07/01 05:48:13;;;;;;;4.47;1.67;;;16.40;99.90;;;;;;5040163;28;20210;-69
2022/07/01 05:50:43;;;;;;;3.63;1.60;;;16.00;99.90;;;;;;5042119;28;20188;-69
2022/07/01 05:53:09;;;;;;;6.00;1.97;;;16.20;99.90;;;;;;5030650;28;20766;-69
2022/07/01 05:55:34;;;;;;;2.30;1.87;;;16.20;99.90;;;;;;5034845;28;20433;-68
2022/07/01 05:58:01;;;;;;;2.57;2.30;;;16.30;99.90;;;;;;5036124;28;20890;-70
2022/07/01 06:00:27;;;;;;;3.27;2.70;;;16.40;99.90;;;;;;5028863;28;20301;-69
2022/07/01 06:02:53;;;;;;;3.13;2.37;;;16.30;99.90;;;;;;5032618;28;20423;-69
2022/07/01 06:05:18;;;;;;;2.97;2.77;;;16.50;99.90;;;;;;5014906;28;20962;-69
2022/07/01 06:07:44;;;;;;;3.90;2.00;;;16.20;99.90;;;;;;5039147;28;20318;-68
2022/07/01 06:10:22;;;;;;;4.50;2.20;;;16.40;99.90;;;;;;5035031;28;20718;-68
2022/07/01 06:12:48;;;;;;;6.53;2.10;;;16.20;99.90;;;;;;5039837;28;20206;-68
2022/07/01 06:15:14;;;;;;;4.07;2.37;;;16.20;99.90;;;;;;5029177;28;20549;-69
2022/07/01 06:17:40;;;;;;;2.90;2.30;;;16.20;99.90;;;;;;5025662;28;20205;-69
2022/07/01 06:20:07;;;;;;;2.70;2.50;;;16.10;99.90;;;;;;5039445;28;20632;-69
2022/07/01 06:22:33;;;;;;;2.83;2.10;;;16.00;99.90;;;;;;5036055;28;20417;-70
2022/07/01 06:25:00;;;;;;;2.50;2.30;;;16.20;99.90;;;;;;5040717;28;20442;-70
2022/07/01 06:27:25;;;;;;;10.23;2.23;;;16.30;99.90;;;;;;5027231;28;20233;-70
2022/07/01 06:29:52;;;;;;;2.37;2.13;;;16.40;99.90;;;;;;5022627;28;20452;-70
2022/07/01 06:32:18;;;;;;;4.10;2.10;;;16.50;99.90;;;;;;5031130;28;20189;-71
2022/07/01 06:34:43;;;;;;;2.80;2.30;;;16.50;99.90;;;;;;5028858;28;20549;-69
2022/07/01 06:37:10;;;;;;;4.50;2.77;;;16.30;99.90;;;;;;5025184;28;20532;-70
2022/07/01 06:39:35;;;;;;;2.87;2.57;;;16.40;99.90;;;;;;5037214;28;20317;-70
2022/07/01 06:42:01;;;;;;;3.23;2.33;;;16.50;99.90;;;;;;5035411;28;20408;-72
2022/07/01 06:44:26;;;;;;;2.00;1.90;;;16.50;99.90;;;;;;5032699;28;20284;-69
2022/07/01 06:46:52;;;;;;;2.17;1.93;;;16.50;99.90;;;;;;5035937;28;21036;-68
2022/07/01 06:49:18;;;;;;;9.03;3.03;;;16.40;99.90;;;;;;5032296;28;20179;-70
2022/07/01 06:51:44;;;;;;;3.70;2.73;;;16.50;99.90;;;;;;5029513;28;20256;-70
2022/07/01 06:54:09;;;;;;;3.57;2.47;;;16.40;99.90;;;;;;5031180;28;20663;-69
2022/07/01 06:56:35;;;;;;;2.10;1.87;;;16.40;99.90;;;;;;5034365;28;20257;-70
2022/07/01 06:59:01;;;;;;;2.50;2.30;;;16.70;99.90;;;;;;5029975;28;20244;-70
2022/07/01 07:01:27;;;;;;;1.93;1.50;;;16.80;99.90;;;;;;5041918;28;20195;-71
2022/07/01 07:03:53;;;;;;;2.60;2.03;;;16.60;99.90;;;;;;5030718;28;20447;-70
2022/07/01 07:06:19;;;;;;;2.10;1.90;;;16.50;99.90;;;;;;5027460;28;20437;-71
2022/07/01 07:08:45;;;;;;;2.27;1.73;;;16.70;99.90;;;;;;5027134;28;20440;-71
2022/07/01 07:11:11;;;;;;;2.10;1.80;;;16.70;99.90;;;;;;5024794;28;21095;-68
2022/07/01 07:13:37;;;;;;;1.60;1.50;;;16.90;99.90;;;;;;5024951;28;20616;-70
2022/07/01 07:16:03;;;;;;;4.17;2.20;;;16.80;99.90;;;;;;5034752;28;20655;-70
2022/07/01 07:18:28;;;;;;;1.90;1.70;;;16.70;99.90;;;;;;5043955;28;20216;-69
2022/07/01 07:20:54;;;;;;;3.90;1.47;;;16.50;99.90;;;;;;5044709;28;20280;-72
2022/07/01 07:23:20;;;;;;;2.00;1.77;;;16.50;99.90;;;;;;5040069;28;20409;-70
2022/07/01 07:25:45;;;;;;;1.90;1.70;;;16.30;99.90;;;;;;5011258;28;20226;-70
2022/07/01 07:28:11;;;;;;;3.00;1.93;;;16.60;99.90;;;;;;5024370;28;20207;-70
2022/07/01 07:30:37;;;;;;;2.10;1.60;;;16.50;99.90;;;;;;5024666;28;20214;-69
2022/07/01 07:33:03;;;;;;;2.20;2.00;;;16.40;99.90;;;;;;5023403;28;20652;-69
2022/07/01 07:35:28;;;;;;;2.43;1.80;;;16.60;99.90;;;;;;5024291;28;20621;-67
2022/07/01 07:37:54;;;;;;;2.30;1.63;;;16.50;99.90;;;;;;5025435;28;20198;-69
2022/07/01 07:40:20;;;;;;;2.13;1.30;;;16.50;99.90;;;;;;5021173;28;20182;-68
2022/07/01 07:42:47;;;;;;;2.03;1.63;;;16.60;99.90;;;;;;5029224;28;20266;-70
2022/07/01 07:45:14;;;;;;;3.00;2.17;;;16.70;99.90;;;;;;5028456;28;20193;-70
2022/07/01 07:47:44;;;;;;;2.33;2.13;;;16.90;99.90;;;;;;5031664;28;20804;-70
2022/07/01 07:50:11;;;;;;;2.80;1.40;;;16.80;99.90;;;;;;5042770;28;20517;-69
2022/07/01 07:52:37;;;;;;;1.60;1.37;;;16.90;99.90;;;;;;5027419;28;20452;-70
2022/07/01 07:55:05;;;;;;;1.90;1.70;;;16.80;99.90;;;;;;5043379;28;20494;-71
2022/07/01 07:57:30;;;;;;;1.83;1.73;;;17.00;99.90;;;;;;5037229;28;20454;-69
2022/07/01 07:59:56;;;;;;;4.63;1.90;;;17.30;99.90;;;;;;5025620;28;20413;-70
2022/07/01 08:02:22;;;;;;;1.87;1.73;;;17.40;99.90;;;;;;5035108;28;20213;-69
2022/07/01 08:04:48;;;;;;;2.00;1.60;;;17.20;99.90;;;;;;5044049;28;20186;-70
2022/07/01 08:07:35;;;;;;;2.17;1.77;;;17.30;99.90;;;;;;5041730;28;20217;-69
2022/07/01 08:10:01;;;;;;;1.80;1.70;;;17.10;99.90;;;;;;5023314;28;20657;-68
2022/07/01 08:12:26;;;;;;;2.00;1.70;;;17.20;99.90;;;;;;5023897;28;20426;-68
2022/07/01 08:14:52;;;;;;;3.03;2.23;;;17.40;99.90;;;;;;5035221;28;20203;-69
2022/07/01 08:17:18;;;;;;;4.30;1.73;;;17.50;99.90;;;;;;5023739;28;20249;-68
2022/07/01 08:19:44;;;;;;;1.93;1.73;;;17.20;99.90;;;;;;5040663;28;20405;-69
2022/07/01 08:22:09;;;;;;;2.00;1.80;;;17.40;99.90;;;;;;5038510;28;20181;-70
2022/07/01 08:24:35;;;;;;;1.67;1.57;;;17.50;99.90;;;;;;5033925;28;20614;-69
2022/07/01 08:27:00;;;;;;;2.10;1.70;;;17.30;99.90;;;;;;5043397;28;20228;-69
2022/07/01 08:29:26;;;;;;;2.53;1.80;;;17.20;99.90;;;;;;5043200;28;20224;-69
2022/07/01 08:31:52;;;;;;;1.50;1.40;;;17.40;99.90;;;;;;5041488;28;20213;-70
2022/07/01 08:34:17;;;;;;;1.50;1.27;;;17.50;99.90;;;;;;5023303;28;20218;-71
2022/07/01 08:36:43;;;;;;;2.60;1.20;;;17.50;99.90;;;;;;5035666;28;20293;-71
2022/07/01 08:39:08;;;;;;;2.40;1.40;;;17.50;99.90;;;;;;5022966;28;20225;-70
2022/07/01 08:41:34;;;;;;;1.50;1.33;;;17.70;99.90;;;;;;5025295;28;20221;-68
2022/07/01 08:44:00;;;;;;;2.93;1.40;;;17.40;99.90;;;;;;5044175;28;20532;-68
2022/07/01 08:46:28;;;;;;;2.30;1.50;;;17.50;99.90;;;;;;5046919;28;20182;-69
2022/07/01 08:48:54;;;;;;;1.87;1.57;;;17.50;99.90;;;;;;5047478;28;20427;-71
2022/07/01 08:51:20;;;;;;;1.77;1.50;;;17.60;99.90;;;;;;5046998;28;20412;-71
2022/07/01 08:53:45;;;;;;;2.57;1.20;;;17.70;99.90;;;;;;5038288;28;20224;-68
2022/07/01 08:58:55;;;;;;;2.30;1.50;;;17.80;99.90;;;;;;5046792;28;20689;-69
2022/07/01 09:01:23;;;;;;;1.77;1.53;;;17.60;99.90;;;;;;5047099;28;20413;-70
2022/07/01 09:03:52;;;;;;;3.33;1.73;;;17.60;99.90;;;;;;5037899;28;20409;-70
2022/07/01 09:06:28;;;;;;;2.30;1.60;;;17.50;99.90;;;;;;5008861;28;20428;-70
2022/07/01 09:08:54;;;;;;;3.20;1.33;;;17.60;99.90;;;;;;5027710;28;20472;-71
2022/07/01 09:11:26;;;;;;;3.73;2.03;;;17.70;99.90;;;;;;5027323;28;20448;-70
2022/07/01 09:14:10;;;;;;;1.90;1.70;;;17.80;99.90;;;;;;5044792;28;20229;-69
2022/07/01 09:16:48;;;;;;;3.97;2.00;;;17.60;99.90;;;;;;5028437;28;20445;-69
2022/07/01 09:19:15;;;;;;;2.70;2.50;;;17.60;99.90;;;;;;5027098;28;20819;-69
2022/07/01 09:21:42;;;;;;;2.83;2.10;;;17.80;99.90;;;;;;5027080;28;20781;-69
2022/07/01 09:24:34;;;;;;;3.20;2.40;;;17.70;99.90;;;;;;5030260;28;20436;-69
2022/07/01 09:27:13;;;;;;;3.80;1.87;;;17.50;99.90;;;;;;5035148;28;20429;-70
2022/07/01 09:29:44;;;;;;;2.10;1.67;;;17.50;99.90;;;;;;5009158;28;20508;-70
2022/07/01 09:32:12;;;;;;;2.47;2.20;;;17.60;99.90;;;;;;5027079;28;20421;-69
2022/07/01 09:34:43;;;;;;;3.30;1.70;;;17.50;99.90;;;;;;5034164;28;20455;-69
2022/07/01 09:37:12;;;;;;;1.93;1.50;;;17.40;99.90;;;;;;5016198;28;20440;-69
2022/07/01 09:39:46;;;;;;;3.67;1.93;;;17.50;99.90;;;;;;5036293;28;20460;-71
2022/07/01 09:42:12;;;;;;;4.60;2.40;;;17.60;99.90;;;;;;5026304;28;20421;-70
2022/07/01 09:44:59;;;;;;;2.30;2.10;;;17.50;99.90;;;;;;5026155;28;20425;-70
2022/07/01 09:47:26;;;;;;;2.90;2.23;;;17.60;99.90;;;;;;5028433;28;20813;-71
2022/07/01 09:49:52;;;;;;;3.03;2.20;;;17.50;99.90;;;;;;5032025;28;20424;-71
2022/07/01 09:52:18;;;;;;;3.10;2.43;;;17.40;99.90;;;;;;5026250;28;20418;-70
2022/07/01 09:54:47;;;;;;;4.23;2.30;;;17.30;99.90;;;;;;5025285;28;20500;-71
2022/07/01 09:57:16;;;;;;;2.40;1.77;;;17.30;99.90;;;;;;5007320;28;21069;-70
2022/07/01 09:59:42;;;;;;;2.97;2.23;;;17.20;99.90;;;;;;5025935;28;20406;-70
2022/07/01 10:02:09;;;;;;;3.60;2.30;;;17.20;99.90;;;;;;5007619;28;20427;-70
2022/07/01 10:04:41;;;;;;;2.80;1.87;;;17.10;99.90;;;;;;5025660;28;20610;-71
2022/07/01 10:07:16;;;;;;;3.10;2.10;;;17.10;99.90;;;;;;5027341;28;20952;-70
2022/07/01 10:10:03;;;;;;;3.57;1.50;;;16.90;99.90;;;;;;5045046;28;20486;-73
2022/07/01 10:12:38;;;;;;;2.07;1.80;;;16.90;99.90;;;;;;5025711;28;20848;-70
2022/07/01 10:15:07;;;;;;;2.60;2.40;;;16.80;99.90;;;;;;5036874;28;20551;-70
2022/07/01 10:17:41;;;;;;;3.10;1.93;;;17.10;99.90;;;;;;5040103;28;20961;-69
2022/07/01 10:20:12;;;;;;;2.97;2.10;;;17.10;99.90;;;;;;5045352;28;20436;-71
2022/07/01 10:22:39;;;;;;;2.87;2.43;;;17.50;99.90;;;;;;5045105;28;20423;-71
2022/07/01 10:25:31;;;;;;;2.60;2.40;;;17.80;99.90;;;;;;5035242;28;20441;-70
2022/07/01 10:28:25;;;;;;;3.37;2.37;;;17.80;99.90;;;;;;5025610;28;20533;-70
2022/07/01 10:30:56;;;;;;;3.10;1.93;;;18.00;99.90;;;;;;5042411;28;20855;-69
2022/07/01 10:33:34;;;;;;;2.60;1.30;;;17.90;99.90;;;;;;5035589;28;20418;-71
2022/07/01 10:36:33;;;;;;;1.83;1.40;;;17.70;99.90;;;;;;5029189;28;20406;-69
2022/07/01 10:39:06;;;;;;;1.60;1.37;;;17.70;99.90;;;;;;5045098;28;20811;-71
2022/07/01 10:41:33;;;;;;;1.40;1.30;;;17.80;99.90;;;;;;5045522;28;20397;-70
2022/07/01 10:44:02;;;;;;;2.60;1.60;;;18.20;99.90;;;;;;5044799;28;20409;-70
2022/07/01 10:47:01;;;;;;;2.03;1.37;;;18.10;99.90;;;;;;5027281;28;20483;-70
2022/07/01 10:49:35;;;;;;;2.37;1.50;;;18.30;99.90;;;;;;5031430;28;20464;-72
2022/07/01 10:52:05;;;;;;;1.97;1.73;;;17.90;99.90;;;;;;5043342;28;20408;-72
2022/07/01 10:54:34;;;;;;;1.43;1.30;;;17.80;99.90;;;;;;5045118;28;20552;-71
2022/07/01 10:57:19;;;;;;;1.73;1.40;;;18.10;99.90;;;;;;5044565;28;20429;-71
2022/07/01 10:59:53;;;;;;;1.80;1.60;;;18.10;99.90;;;;;;5024846;28;20441;-70
2022/07/01 11:02:30;;;;;;;2.10;1.50;;;18.40;99.90;;;;;;5033622;28;20419;-70
2022/07/01 11:05:00;;;;;;;1.30;1.20;;;18.60;99.90;;;;;;5042899;28;20415;-69
2022/07/01 11:07:31;;;;;;;1.63;1.53;;;18.90;99.90;;;;;;5032873;28;20446;-70
2022/07/01 11:09:58;;;;;;;1.87;1.63;;;19.10;99.90;;;;;;5026502;28;20829;-69
2022/07/01 11:12:24;;;;;;;1.33;1.23;;;19.20;99.90;;;;;;5039779;28;20409;-70
2022/07/01 11:14:51;;;;;;;2.53;1.70;;;19.40;99.90;;;;;;5034640;28;20452;-70
2022/07/01 11:17:20;;;;;;;2.50;1.60;;;19.50;99.90;;;;;;5037877;28;20247;-70
2022/07/01 11:19:51;;;;;;;1.70;1.20;;;19.50;99.90;;;;;;5024254;28;20496;-70
2022/07/01 11:22:20;;;;;;;2.80;1.40;;;19.40;99.90;;;;;;5023659;28;20410;-70
2022/07/01 11:24:46;;;;;;;1.83;1.53;;;18.90;99.90;;;;;;5030381;28;20416;-70
2022/07/01 11:27:11;;;;;;;2.20;2.00;;;18.60;99.90;;;;;;5034471;28;20446;-70
2022/07/01 11:29:37;;;;;;;2.07;1.60;;;18.40;99.90;;;;;;5023901;28;20414;-70
2022/07/01 11:32:03;;;;;;;3.60;1.50;;;18.50;99.90;;;;;;5031781;28;20191;-70
2022/07/01 11:34:30;;;;;;;1.10;1.00;;;18.60;99.90;;;;;;5023593;28;20672;-70
2022/07/01 11:39:43;;;;;;;2.70;1.93;;;18.90;99.90;;;;;;5024598;28;20420;-71
2022/07/01 11:42:11;;;;;;;1.80;1.33;;;18.90;99.90;;;;;;5033249;28;20915;-70
2022/07/01 11:44:42;;;;;;;1.37;1.20;;;19.10;99.90;;;;;;5023801;28;20438;-71
2022/07/01 11:47:12;;;;;;;2.40;1.60;;;19.40;99.90;;;;;;5023547;28;20809;-69
2022/07/01 11:49:48;;;;;;;1.60;1.20;;;19.40;99.90;;;;;;5035376;28;20414;-70
2022/07/01 11:52:16;;;;;;;1.53;1.20;;;19.80;99.90;;;;;;5040553;28;20889;-69
2022/07/01 11:54:45;;;;;;;1.33;1.17;;;20.70;99.90;;;;;;5023791;28;20469;-69
2022/07/01 11:57:22;;;;;;;1.43;1.33;;;21.40;99.90;;;;;;5023828;28;20480;-69
2022/07/01 11:59:50;;;;;;;1.30;1.20;;;21.70;99.90;;;;;;5037680;28;20905;-70
2022/07/01 12:02:18;;;;;;;1.27;1.00;;;22.20;99.90;;;;;;5033809;28;20416;-69
2022/07/01 12:04:44;;;;;;;3.53;1.30;;;22.40;99.90;;;;;;5023124;28;20421;-70
2022/07/01 12:07:11;;;;;;;2.07;1.47;;;21.80;99.90;;;;;;5024343;28;20515;-71
2022/07/01 12:09:37;;;;;;;2.50;1.33;;;21.70;99.90;;;;;;5023619;28;20413;-70
2022/07/01 12:12:04;;;;;;;1.40;1.20;;;21.60;99.90;;;;;;5023894;28;20453;-69
2022/07/01 12:14:34;;;;;;;2.43;1.13;;;22.20;99.90;;;;;;5024058;28;20450;-70
2022/07/01 12:17:08;;;;;;;1.23;1.00;;;22.60;99.90;;;;;;5033154;28;20449;-69
2022/07/01 12:19:42;;;;;;;2.17;1.40;;;23.70;99.90;;;;;;5042332;28;20405;-70
2022/07/01 12:22:10;;;;;;;1.20;0.93;;;24.10;99.90;;;;;;5034532;28;20402;-68
2022/07/01 12:24:36;;;;;;;3.17;0.90;;;23.70;99.90;;;;;;5042981;28;20416;-68
2022/07/01 12:27:04;;;;;;;1.60;1.40;;;23.20;99.90;;;;;;5033018;28;20988;-68
2022/07/01 12:29:43;;;;;;;1.40;0.97;;;23.20;99.90;;;;;;5023524;28;20418;-69
2022/07/01 12:32:11;;;;;;;1.30;0.87;;;23.30;99.90;;;;;;5028968;28;20439;-70
2022/07/01 12:34:44;;;;;;;2.43;1.30;;;24.00;99.90;;;;;;5037857;28;20467;-69
2022/07/01 12:37:40;;;;;;;1.33;1.23;;;23.60;99.90;;;;;;5044043;28;20435;-69
2022/07/01 12:40:08;;;;;;;2.13;1.20;;;23.20;99.90;;;;;;5035336;28;20417;-68
2022/07/01 12:42:39;;;;;;;1.97;1.13;;;22.90;99.90;;;;;;5025067;28;20413;-70
2022/07/01 12:45:13;;;;;;;2.23;1.30;;;23.00;99.90;;;;;;5028216;28;20408;-68
2022/07/01 12:47:43;;;;;;;1.60;1.10;;;22.20;99.90;;;;;;5037074;28;20434;-68
2022/07/01 12:50:21;;;;;;;2.13;1.60;;;21.90;99.90;;;;;;5030506;28;20417;-69
2022/07/01 12:53:03;;;;;;;2.17;1.83;;;21.40;99.90;;;;;;5040407;28;20950;-69
2022/07/01 12:55:38;;;;;;;2.70;1.20;;;20.70;99.90;;;;;;5036675;28;20450;-68
2022/07/01 12:58:12;;;;;;;1.80;1.70;;;20.60;99.90;;;;;;5023213;28;20524;-68
2022/07/01 13:00:39;;;;;;;3.90;2.07;;;20.30;99.90;;;;;;5023458;28;20471;-69
2022/07/01 13:03:06;;;;;;;2.30;2.10;;;20.40;99.90;;;;;;5005326;28;20902;-68
2022/07/01 13:05:33;;;;;;;2.37;2.17;;;20.50;99.90;;;;;;5005186;28;21287;-68
2022/07/01 13:08:00;;;;;;;1.90;1.80;;;20.60;99.90;;;;;;5022564;28;20520;-69